EKSP/SKS METAR and TAF weather

Enter ICAO airport designator
Station Type Date Time Source
EKSP METAR 2019/02/23 22:50 UTC NOAA

EKSP 232250Z 20002KT CAVOK 01/M03 Q1038


Station Type Date Time Source
EKSP Decoded METAR 2019/02/23 22:50 UTC NOAA

Skrydstrup, Denmark (EKSP) 55-14N 009-16E 47M
Feb 23, 2019 - 05:50 PM EST / 2019.02.23 2250 UTC
Wind: from the SSW (200 degrees) at 2 MPH (2 KT):0
Visibility: greater than 7 mile(s):0
Temperature: 33 F (1 C)
Dew Point: 26 F (-3 C)
Relative Humidity: 74%
Pressure (altimeter): 30.65 in. Hg (1038 hPa)
ob: EKSP 232250Z 20002KT CAVOK 01/M03 Q1038
cycle: 23

Station Type Date Time Source
EKSP TAF 2019/02/23 21:30 UTC NOAA

TAF EKSP 232026Z 2321/2418 14006KT 9999 FEW200
BECMG 2321/2324 20006KT
TEMPO 2400/2407 4000 BR PROB40 2416/2418 4000 BR BKN008


Example: see airport list